createdAt,value
2018-07-28T00:00:11.929Z,21.07
2018-07-28T00:02:40.819Z,21.13
2018-07-28T00:05:10.098Z,21.21
2018-07-28T00:07:38.775Z,21.23
2018-07-28T00:10:11.405Z,21.15
2018-07-28T00:12:40.214Z,21.19
2018-07-28T00:15:10.550Z,21.14
2018-07-28T00:17:40.088Z,21.27
2018-07-28T00:20:10.515Z,21.36
2018-07-28T00:22:39.372Z,21.27
2018-07-28T00:25:10.674Z,21.18
2018-07-28T00:27:39.407Z,21.25
2018-07-28T00:30:10.964Z,21.31
2018-07-28T00:32:39.652Z,21.30
2018-07-28T00:35:08.617Z,21.23
2018-07-28T00:37:37.662Z,21.22
2018-07-28T00:40:07.057Z,21.21
2018-07-28T00:42:36.154Z,21.17
2018-07-28T00:45:05.715Z,21.15
2018-07-28T00:47:34.387Z,21.08
2018-07-28T00:50:03.387Z,21.03
2018-07-28T00:52:32.045Z,21.00
2018-07-28T00:55:00.770Z,20.87
2018-07-28T00:57:29.462Z,20.74
2018-07-28T00:59:58.151Z,20.60
2018-07-28T01:02:26.958Z,20.52
2018-07-28T01:04:55.698Z,20.40
2018-07-28T01:07:24.410Z,20.33
2018-07-28T01:09:53.172Z,20.32
2018-07-28T01:12:21.845Z,20.27
2018-07-28T01:14:50.607Z,20.25
2018-07-28T01:17:19.268Z,20.27
2018-07-28T01:19:47.998Z,20.30
2018-07-28T01:22:16.534Z,20.35
2018-07-28T01:24:45.138Z,20.36
2018-07-28T01:27:13.928Z,20.35
2018-07-28T01:29:42.628Z,20.35
2018-07-28T01:32:11.311Z,20.35
2018-07-28T01:34:40.028Z,20.32
2018-07-28T01:37:08.763Z,20.37
2018-07-28T01:39:37.375Z,20.29
2018-07-28T01:42:06.200Z,20.31
2018-07-28T01:44:34.886Z,20.26
2018-07-28T01:47:03.568Z,20.23
2018-07-28T01:49:32.167Z,20.21
2018-07-28T01:52:03.196Z,20.15
2018-07-28T01:54:31.858Z,20.17
2018-07-28T01:57:00.526Z,20.34
2018-07-28T01:59:29.142Z,20.20
2018-07-28T02:01:57.725Z,20.13
2018-07-28T02:04:26.437Z,20.14
2018-07-28T02:06:55.058Z,20.17
2018-07-28T02:09:23.535Z,20.18
2018-07-28T02:11:52.188Z,20.20
2018-07-28T02:14:20.814Z,20.26
2018-07-28T02:16:49.570Z,20.21
2018-07-28T02:19:18.299Z,20.20
2018-07-28T02:21:46.991Z,20.25
2018-07-28T02:24:15.668Z,20.24
2018-07-28T02:26:44.306Z,20.16
2018-07-28T02:29:12.975Z,20.05
2018-07-28T02:31:41.800Z,19.95
2018-07-28T02:34:10.499Z,19.87
2018-07-28T02:36:38.926Z,19.79
2018-07-28T02:39:10.006Z,19.74
2018-07-28T02:41:39.006Z,19.65
2018-07-28T02:44:07.968Z,19.58
2018-07-28T02:46:36.983Z,19.50
2018-07-28T02:49:06.455Z,19.48
2018-07-28T02:51:35.071Z,19.46
2018-07-28T02:54:03.551Z,19.75
2018-07-28T02:56:32.208Z,19.92
2018-07-28T02:59:00.846Z,19.78
2018-07-28T03:01:29.486Z,19.74
2018-07-28T03:03:58.186Z,19.72
2018-07-28T03:06:26.786Z,19.68
2018-07-28T03:08:55.239Z,19.75
2018-07-28T03:11:23.924Z,19.75
2018-07-28T03:13:52.533Z,19.74
2018-07-28T03:16:21.099Z,19.72
2018-07-28T03:18:49.753Z,19.68
2018-07-28T03:21:18.458Z,19.67
2018-07-28T03:23:47.198Z,19.83
2018-07-28T03:26:15.914Z,19.76
2018-07-28T03:28:44.646Z,19.70
2018-07-28T03:31:13.098Z,19.75
2018-07-28T03:33:41.768Z,19.75
2018-07-28T03:36:10.406Z,19.62
2018-07-28T03:38:39.031Z,19.51
2018-07-28T03:41:07.946Z,19.45
2018-07-28T03:43:36.705Z,19.41
2018-07-28T03:46:05.788Z,19.38
2018-07-28T03:48:34.433Z,19.37
2018-07-28T03:51:02.892Z,19.43
2018-07-28T03:53:31.448Z,19.58
2018-07-28T03:56:00.043Z,19.49
2018-07-28T03:58:28.631Z,19.47
2018-07-28T04:00:57.284Z,19.52
2018-07-28T04:03:25.933Z,19.61
2018-07-28T04:05:54.499Z,19.58
2018-07-28T04:08:23.027Z,19.58
2018-07-28T04:10:51.686Z,19.60
2018-07-28T04:13:20.327Z,19.65
2018-07-28T04:15:49.003Z,19.71
2018-07-28T04:18:17.640Z,19.73
2018-07-28T04:20:46.131Z,19.69
2018-07-28T04:23:14.788Z,19.77
2018-07-28T04:25:43.468Z,19.87
2018-07-28T04:28:12.098Z,19.82
2018-07-28T04:30:40.703Z,19.83
2018-07-28T04:33:09.349Z,19.78
2018-07-28T04:35:37.950Z,19.79
2018-07-28T04:38:06.588Z,19.82
2018-07-28T04:40:35.217Z,19.87
2018-07-28T04:43:03.994Z,19.87
2018-07-28T04:45:32.618Z,19.89
2018-07-28T04:48:01.262Z,19.96
2018-07-28T04:50:29.915Z,20.06
2018-07-28T04:52:58.375Z,20.28
2018-07-28T04:55:27.047Z,20.54
2018-07-28T04:57:55.692Z,20.85
2018-07-28T05:00:24.171Z,20.99
2018-07-28T05:02:52.817Z,20.95
2018-07-28T05:05:21.465Z,21.13
2018-07-28T05:07:50.425Z,21.16
2018-07-28T05:10:19.093Z,21.38
2018-07-28T05:12:48.632Z,21.97
2018-07-28T05:15:17.290Z,21.93
2018-07-28T05:17:45.754Z,22.37
2018-07-28T05:20:14.396Z,22.80
2018-07-28T05:22:43.176Z,22.76
2018-07-28T05:25:11.916Z,22.84
2018-07-28T05:27:40.584Z,22.93
2018-07-28T05:30:10.740Z,23.05
2018-07-28T05:32:39.459Z,23.35
2018-07-28T05:35:09.631Z,23.55
2018-07-28T05:37:38.450Z,23.55
2018-07-28T05:40:07.163Z,23.51
2018-07-28T05:42:35.841Z,23.64
2018-07-28T05:45:05.348Z,23.81
2018-07-28T05:47:34.226Z,24.20
2018-07-28T05:50:03.067Z,24.54
2018-07-28T05:52:31.858Z,24.43
2018-07-28T05:55:00.545Z,24.34
2018-07-28T05:57:29.323Z,24.23
2018-07-28T05:59:57.963Z,24.23
2018-07-28T06:02:26.845Z,24.38
2018-07-28T06:04:56.299Z,24.40
2018-07-28T06:07:24.984Z,24.67
2018-07-28T06:09:54.014Z,25.04
2018-07-28T06:12:22.769Z,25.26
2018-07-28T06:14:51.641Z,25.33
2018-07-28T06:17:20.410Z,24.25
2018-07-28T06:19:49.128Z,23.95
2018-07-28T06:22:17.773Z,23.62
2018-07-28T06:24:46.556Z,23.73
2018-07-28T06:27:15.369Z,23.37
2018-07-28T06:29:44.476Z,23.14
2018-07-28T06:32:13.226Z,23.04
2018-07-28T06:34:42.306Z,23.11
2018-07-28T06:37:11.058Z,23.18
2018-07-28T06:39:39.717Z,23.05
2018-07-28T06:42:08.380Z,23.06
2018-07-28T06:44:36.983Z,22.98
2018-07-28T06:47:05.985Z,22.98
2018-07-28T06:49:34.618Z,23.04
2018-07-28T06:52:03.104Z,23.28
2018-07-28T06:54:31.770Z,23.88
2018-07-28T06:57:00.396Z,24.14
2018-07-28T06:59:29.030Z,24.47
2018-07-28T07:01:57.678Z,24.70
2018-07-28T07:04:26.303Z,24.41
2018-07-28T07:06:54.931Z,24.75
2018-07-28T07:09:23.596Z,25.24
2018-07-28T07:11:52.311Z,25.23
2018-07-28T07:14:21.000Z,25.16
2018-07-28T07:16:50.523Z,25.48
2018-07-28T07:19:19.210Z,25.05
2018-07-28T07:21:48.538Z,25.07
2018-07-28T07:24:17.318Z,24.73
2018-07-28T07:26:45.998Z,24.87
2018-07-28T07:29:14.670Z,25.01
2018-07-28T07:31:43.353Z,25.21
2018-07-28T07:34:12.148Z,25.59
2018-07-28T07:36:41.693Z,25.84
2018-07-28T07:39:10.418Z,25.95
2018-07-28T07:41:39.130Z,26.43
2018-07-28T07:44:07.784Z,26.18
2018-07-28T07:46:36.450Z,26.30
2018-07-28T07:49:05.065Z,26.52
2018-07-28T07:51:33.723Z,26.77
2018-07-28T07:54:02.376Z,26.71
2018-07-28T07:56:31.023Z,27.23
2018-07-28T07:58:59.670Z,27.56
2018-07-28T08:01:29.153Z,27.99
2018-07-28T08:03:57.597Z,27.99
2018-07-28T08:06:26.289Z,28.39
2018-07-28T08:08:54.943Z,28.66
2018-07-28T08:11:23.738Z,28.61
2018-07-28T08:13:52.385Z,28.66
2018-07-28T08:16:21.048Z,28.51
2018-07-28T08:18:49.541Z,28.70
2018-07-28T08:21:18.254Z,28.55
2018-07-28T08:23:46.939Z,28.75
2018-07-28T08:26:15.626Z,29.35
2018-07-28T08:28:44.263Z,29.38
2018-07-28T08:31:12.966Z,29.71
2018-07-28T08:33:41.486Z,29.99
2018-07-28T08:36:10.139Z,30.38
2018-07-28T08:38:38.811Z,30.71
2018-07-28T08:41:07.334Z,31.00
2018-07-28T08:43:36.028Z,31.26
2018-07-28T08:46:05.411Z,31.14
2018-07-28T08:48:34.181Z,31.22
2018-07-28T08:51:02.984Z,31.39
2018-07-28T08:53:32.253Z,31.61
2018-07-28T08:56:00.703Z,31.10
2018-07-28T08:58:29.393Z,31.29
2018-07-28T09:00:58.053Z,31.48
2018-07-28T09:03:26.729Z,31.87
2018-07-28T09:05:55.435Z,31.70
2018-07-28T09:08:24.151Z,32.26
2018-07-28T09:10:52.814Z,32.47
2018-07-28T09:13:21.466Z,32.57
2018-07-28T09:15:50.128Z,32.68
2018-07-28T09:18:18.831Z,32.84
2018-07-28T09:20:47.550Z,32.54
2018-07-28T09:23:16.287Z,33.79
2018-07-28T09:25:44.994Z,33.44
2018-07-28T09:28:13.677Z,33.79
2018-07-28T09:30:42.459Z,33.51
2018-07-28T09:33:11.050Z,33.48
2018-07-28T09:35:39.714Z,33.53
2018-07-28T09:38:08.613Z,33.40
2018-07-28T09:40:37.479Z,33.67
2018-07-28T09:43:06.454Z,33.72
2018-07-28T09:45:35.224Z,34.03
2018-07-28T09:48:04.049Z,34.32
2018-07-28T09:50:32.828Z,34.36
2018-07-28T09:53:01.686Z,34.43
2018-07-28T09:55:30.540Z,34.40
2018-07-28T09:57:59.316Z,34.36
2018-07-28T10:00:33.697Z,34.22
2018-07-28T10:03:02.536Z,34.11
2018-07-28T10:05:31.464Z,34.01
2018-07-28T10:08:00.419Z,34.20
2018-07-28T10:10:30.180Z,34.16
2018-07-28T10:12:59.196Z,33.79
2018-07-28T10:15:27.984Z,33.98
2018-07-28T10:17:57.761Z,33.83
2018-07-28T10:20:26.531Z,34.08
2018-07-28T10:22:55.393Z,34.07
2018-07-28T10:25:24.184Z,33.88
2018-07-28T10:27:52.976Z,34.34
2018-07-28T10:30:21.699Z,34.56
2018-07-28T10:32:50.421Z,34.55
2018-07-28T10:35:19.179Z,34.81
2018-07-28T10:37:47.926Z,35.33
2018-07-28T10:40:16.604Z,35.76
2018-07-28T10:42:45.321Z,36.18
2018-07-28T10:45:14.104Z,36.52
2018-07-28T10:47:42.933Z,36.23
2018-07-28T10:50:11.692Z,36.21
2018-07-28T10:52:40.459Z,36.14
2018-07-28T10:55:09.224Z,35.24
2018-07-28T10:57:38.031Z,34.28
2018-07-28T11:00:07.922Z,34.35
2018-07-28T11:02:36.703Z,34.18
2018-07-28T11:05:06.179Z,34.53
2018-07-28T11:07:34.996Z,35.11
2018-07-28T11:10:03.828Z,35.61
2018-07-28T11:12:32.579Z,35.91
2018-07-28T11:15:01.317Z,35.81
2018-07-28T11:17:30.060Z,35.49
2018-07-28T11:19:58.779Z,35.43
2018-07-28T11:22:27.581Z,35.90
2018-07-28T11:24:56.288Z,36.98
2018-07-28T11:27:25.479Z,37.41
2018-07-28T11:29:54.153Z,37.66
2018-07-28T11:32:39.669Z,37.20
2018-07-28T11:35:20.032Z,36.75
2018-07-28T11:38:35.877Z,36.63
2018-07-28T11:41:21.508Z,36.22
2018-07-28T11:44:07.085Z,36.20
2018-07-28T11:46:36.049Z,36.65
2018-07-28T11:49:05.001Z,37.25
2018-07-28T11:51:33.706Z,37.17
2018-07-28T11:54:02.812Z,37.34
2018-07-28T11:56:31.596Z,37.58
2018-07-28T11:59:00.582Z,38.29
2018-07-28T12:01:29.311Z,38.00
2018-07-28T12:03:57.823Z,37.42
2018-07-28T12:06:27.279Z,36.78
2018-07-28T12:08:56.071Z,36.80
2018-07-28T12:11:24.771Z,36.54
2018-07-28T12:13:53.452Z,36.20
2018-07-28T12:16:21.990Z,36.47
2018-07-28T12:18:51.689Z,36.24
2018-07-28T12:21:20.704Z,36.51
2018-07-28T12:23:49.420Z,36.41
2018-07-28T12:26:18.136Z,36.19
2018-07-28T12:28:46.803Z,36.13
2018-07-28T12:31:15.511Z,36.84
2018-07-28T12:33:44.341Z,36.56
2018-07-28T12:36:13.691Z,36.31
2018-07-28T12:38:42.409Z,36.64
2018-07-28T12:41:11.151Z,37.33
2018-07-28T12:43:39.964Z,37.63
2018-07-28T12:46:08.648Z,37.85
2018-07-28T12:48:37.365Z,38.51
2018-07-28T12:51:06.141Z,38.67
2018-07-28T12:53:34.958Z,38.32
2018-07-28T12:56:03.762Z,37.87
2018-07-28T12:58:32.446Z,38.16
2018-07-28T13:01:01.223Z,39.11
2018-07-28T13:03:30.020Z,40.04
2018-07-28T13:05:58.676Z,39.62
2018-07-28T13:08:27.470Z,39.59
2018-07-28T13:10:56.623Z,39.05
2018-07-28T13:13:25.693Z,39.56
2018-07-28T13:15:54.183Z,40.19
2018-07-28T13:18:22.971Z,39.12
2018-07-28T13:20:51.760Z,37.32
2018-07-28T13:23:20.488Z,37.14
2018-07-28T13:25:49.188Z,37.21
2018-07-28T13:28:17.886Z,38.42
2018-07-28T13:30:46.579Z,38.83
2018-07-28T13:33:16.094Z,38.99
2018-07-28T13:35:44.969Z,39.29
2018-07-28T13:38:13.892Z,38.77
2018-07-28T13:40:42.627Z,38.65
2018-07-28T13:43:11.293Z,38.58
2018-07-28T13:45:40.984Z,39.24
2018-07-28T13:48:09.705Z,39.35
2018-07-28T13:50:38.461Z,39.13
2018-07-28T13:53:08.024Z,38.33
2018-07-28T13:55:36.711Z,37.09
2018-07-28T13:58:05.563Z,36.46
2018-07-28T14:00:34.736Z,36.10
2018-07-28T14:03:03.939Z,36.64
2018-07-28T14:05:34.286Z,38.21
2018-07-28T14:08:03.119Z,39.16
2018-07-28T14:10:31.793Z,39.25
2018-07-28T14:13:00.628Z,38.93
2018-07-28T14:15:29.396Z,38.37
2018-07-28T14:17:58.135Z,37.65
2018-07-28T14:20:27.156Z,37.09
2018-07-28T14:22:56.326Z,37.04
2018-07-28T14:25:25.155Z,37.81
2018-07-28T14:27:54.839Z,39.08
2018-07-28T14:30:23.597Z,38.98
2018-07-28T14:32:53.015Z,39.33
2018-07-28T14:35:21.778Z,39.28
2018-07-28T14:37:50.592Z,40.07
2018-07-28T14:40:20.751Z,40.04
2018-07-28T14:42:49.560Z,40.51
2018-07-28T14:45:18.551Z,40.57
2018-07-28T14:47:47.378Z,40.17
2018-07-28T14:50:16.149Z,40.09
2018-07-28T14:52:44.946Z,40.44
2018-07-28T14:55:13.752Z,40.46
2018-07-28T14:57:42.812Z,39.38
2018-07-28T15:00:11.949Z,38.83
2018-07-28T15:02:40.698Z,38.32
2018-07-28T15:05:09.474Z,37.88
2018-07-28T15:07:38.756Z,36.74
2018-07-28T15:10:07.619Z,36.93
2018-07-28T15:12:36.306Z,37.50
2018-07-28T15:15:05.677Z,38.05
2018-07-28T15:17:34.432Z,38.76
2018-07-28T15:20:03.512Z,39.02
2018-07-28T15:22:33.071Z,39.54
2018-07-28T15:25:01.833Z,39.46
2018-07-28T15:27:30.554Z,39.11
2018-07-28T15:29:59.232Z,39.09
2018-07-28T15:32:28.495Z,39.44
2018-07-28T15:34:57.420Z,39.32
2018-07-28T15:37:26.226Z,39.30
2018-07-28T15:39:55.411Z,39.15
2018-07-28T15:42:24.651Z,38.90
2018-07-28T15:44:53.418Z,38.57
2018-07-28T15:47:22.199Z,38.41
2018-07-28T15:49:50.834Z,38.23
2018-07-28T15:52:20.746Z,38.29
2018-07-28T15:54:50.271Z,38.66
2018-07-28T15:57:18.937Z,38.82
2018-07-28T15:59:48.773Z,38.82
2018-07-28T16:02:17.424Z,38.85
2018-07-28T16:04:46.199Z,38.80
2018-07-28T16:07:15.011Z,38.52
2018-07-28T16:09:43.760Z,38.41
2018-07-28T16:12:12.482Z,38.36
2018-07-28T16:14:41.126Z,38.15
2018-07-28T16:17:10.448Z,38.13
2018-07-28T16:19:38.911Z,38.07
2018-07-28T16:22:07.597Z,38.14
2018-07-28T16:24:36.703Z,38.18
2018-07-28T16:27:05.751Z,37.99
2018-07-28T16:29:34.874Z,37.89
2018-07-28T16:32:03.623Z,37.83
2018-07-28T16:34:32.316Z,37.51
2018-07-28T16:37:01.131Z,37.39
2018-07-28T16:39:29.840Z,37.10
2018-07-28T16:41:59.411Z,36.62
2018-07-28T16:44:30.805Z,36.51
2018-07-28T16:46:59.335Z,36.29
2018-07-28T16:49:27.959Z,35.96
2018-07-28T16:51:56.390Z,35.62
2018-07-28T16:54:25.028Z,35.54
2018-07-28T16:56:53.852Z,35.52
2018-07-28T16:59:22.483Z,35.13
2018-07-28T17:01:51.136Z,34.40
2018-07-28T17:04:19.903Z,33.89
2018-07-28T17:06:48.749Z,33.50
2018-07-28T17:09:17.418Z,33.07
2018-07-28T17:11:46.149Z,32.99
2018-07-28T17:14:14.954Z,32.83
2018-07-28T17:16:43.655Z,32.68
2018-07-28T17:19:12.338Z,32.60
2018-07-28T17:21:41.123Z,32.49
2018-07-28T17:24:09.769Z,32.49
2018-07-28T17:26:38.376Z,32.36
2018-07-28T17:29:07.063Z,32.27
2018-07-28T17:31:36.903Z,32.14
2018-07-28T17:34:06.386Z,31.99
2018-07-28T17:36:35.091Z,31.91
2018-07-28T17:39:05.211Z,31.79
2018-07-28T17:41:33.917Z,31.66
2018-07-28T17:44:02.655Z,31.52
2018-07-28T17:46:31.356Z,31.37
2018-07-28T17:49:00.072Z,31.27
2018-07-28T17:51:28.810Z,31.11
2018-07-28T17:53:57.508Z,30.94
2018-07-28T17:56:26.198Z,30.70
2018-07-28T17:58:54.862Z,30.47
2018-07-28T18:01:23.508Z,30.26
2018-07-28T18:03:52.169Z,30.25
2018-07-28T18:06:20.913Z,30.06
2018-07-28T18:08:49.743Z,30.02
2018-07-28T18:11:18.405Z,29.95
2018-07-28T18:13:47.037Z,29.75
2018-07-28T18:16:15.659Z,29.69
2018-07-28T18:18:44.358Z,29.57
2018-07-28T18:21:12.996Z,29.52
2018-07-28T18:23:41.601Z,29.41
2018-07-28T18:26:10.297Z,29.25
2018-07-28T18:28:38.905Z,29.13
2018-07-28T18:31:07.544Z,29.09
2018-07-28T18:33:36.222Z,29.01
2018-07-28T18:36:05.091Z,28.87
2018-07-28T18:38:33.815Z,28.73
2018-07-28T18:41:02.587Z,28.79
2018-07-28T18:43:31.256Z,28.89
2018-07-28T18:45:59.898Z,28.86
2018-07-28T18:48:28.525Z,28.79
2018-07-28T18:50:57.256Z,28.75
2018-07-28T18:53:25.923Z,28.66
2018-07-28T18:55:54.681Z,28.54
2018-07-28T18:58:23.296Z,28.49
2018-07-28T19:00:51.950Z,28.45
2018-07-28T19:03:20.604Z,28.58
2018-07-28T19:05:49.233Z,28.52
2018-07-28T19:08:17.938Z,28.35
2018-07-28T19:10:46.471Z,28.12
2018-07-28T19:13:20.638Z,27.78
2018-07-28T19:15:49.301Z,27.61
2018-07-28T19:18:23.414Z,27.59
2018-07-28T19:20:52.317Z,27.36
2018-07-28T19:23:27.336Z,27.50
2018-07-28T19:25:56.183Z,27.25
2018-07-28T19:29:34.178Z,27.17
2018-07-28T19:32:03.865Z,27.12
2018-07-28T19:34:32.402Z,27.20
2018-07-28T19:37:06.494Z,27.14
2018-07-28T19:39:35.313Z,27.08
2018-07-28T19:42:09.737Z,27.00
2018-07-28T19:44:38.619Z,26.88
2018-07-28T19:47:08.006Z,26.81
2018-07-28T19:49:37.403Z,26.86
2018-07-28T19:52:06.338Z,26.83
2018-07-28T19:54:35.122Z,26.72
2018-07-28T19:57:03.945Z,27.33
2018-07-28T19:59:32.704Z,27.61
2018-07-28T20:02:01.189Z,27.51
2018-07-28T20:04:29.856Z,27.22
2018-07-28T20:06:58.635Z,26.84
2018-07-28T20:09:27.386Z,26.68
2018-07-28T20:11:56.112Z,26.54
2018-07-28T20:14:24.862Z,26.46
2018-07-28T20:16:53.589Z,26.15
2018-07-28T20:19:22.400Z,25.84
2018-07-28T20:21:51.681Z,25.50
2018-07-28T20:24:20.406Z,25.28
2018-07-28T20:26:49.139Z,25.18
2018-07-28T20:29:17.806Z,25.07
2018-07-28T20:31:46.501Z,25.31
2018-07-28T20:34:15.331Z,25.25
2018-07-28T20:36:43.826Z,25.02
2018-07-28T20:39:12.988Z,24.85
2018-07-28T20:41:43.682Z,24.85
2018-07-28T20:44:12.437Z,24.81
2018-07-28T20:46:41.680Z,24.75
2018-07-28T20:49:10.357Z,24.69
2018-07-28T20:51:39.065Z,24.65
2018-07-28T20:54:07.918Z,24.53
2018-07-28T20:56:36.631Z,24.84
2018-07-28T20:59:05.624Z,25.02
2018-07-28T21:01:34.303Z,24.78
2018-07-28T21:04:03.058Z,24.60
2018-07-28T21:06:31.806Z,24.23
2018-07-28T21:09:00.651Z,24.01
2018-07-28T21:11:29.313Z,23.84
2018-07-28T21:13:58.056Z,23.86
2018-07-28T21:16:26.695Z,24.16
2018-07-28T21:18:55.476Z,24.25
2018-07-28T21:21:23.955Z,24.07
2018-07-28T21:23:52.657Z,23.95
2018-07-28T21:26:22.282Z,23.79
2018-07-28T21:28:51.815Z,23.67
2018-07-28T21:31:20.615Z,23.50
2018-07-28T21:33:49.736Z,23.63
2018-07-28T21:36:18.436Z,23.65
2018-07-28T21:38:47.145Z,23.73
2018-07-28T21:41:15.882Z,23.73
2018-07-28T21:43:45.129Z,23.66
2018-07-28T21:46:13.866Z,23.54
2018-07-28T21:48:42.378Z,23.58
2018-07-28T21:51:11.175Z,23.42
2018-07-28T21:53:40.013Z,23.30
2018-07-28T21:56:08.730Z,23.12
2018-07-28T21:58:37.408Z,23.24
2018-07-28T22:01:13.194Z,23.03
2018-07-28T22:03:42.251Z,22.91
2018-07-28T22:06:11.057Z,22.81
2018-07-28T22:08:39.718Z,22.72
2018-07-28T22:11:08.268Z,22.86
2018-07-28T22:13:37.013Z,22.75
2018-07-28T22:16:05.798Z,22.60
2018-07-28T22:18:34.429Z,22.48
2018-07-28T22:21:03.161Z,22.41
2018-07-28T22:23:31.846Z,22.32
2018-07-28T22:26:00.933Z,22.47
2018-07-28T22:28:29.711Z,22.75
2018-07-28T22:30:58.150Z,22.68
2018-07-28T22:33:27.047Z,22.60
2018-07-28T22:35:55.730Z,22.56
2018-07-28T22:38:24.433Z,22.56
2018-07-28T22:40:53.183Z,22.51
2018-07-28T22:43:21.813Z,22.47
2018-07-28T22:45:50.459Z,22.42
2018-07-28T22:48:19.630Z,22.45
2018-07-28T22:50:48.360Z,22.39
2018-07-28T22:53:17.086Z,22.44
2018-07-28T22:55:45.966Z,22.53
2018-07-28T22:58:14.421Z,22.40
2018-07-28T23:00:43.238Z,22.29
2018-07-28T23:03:11.953Z,22.22
2018-07-28T23:05:40.600Z,22.09
2018-07-28T23:08:09.196Z,21.99
2018-07-28T23:10:37.670Z,21.95
2018-07-28T23:13:06.215Z,21.90
2018-07-28T23:15:34.945Z,21.80
2018-07-28T23:18:03.499Z,21.68
2018-07-28T23:20:32.269Z,21.59
2018-07-28T23:23:01.058Z,21.49
2018-07-28T23:25:29.697Z,21.48
2018-07-28T23:27:58.332Z,21.43
2018-07-28T23:30:27.573Z,21.43
2018-07-28T23:32:56.463Z,21.46
2018-07-28T23:35:25.051Z,21.45
2018-07-28T23:37:53.741Z,21.49
2018-07-28T23:40:22.466Z,21.49
2018-07-28T23:42:51.263Z,21.43
2018-07-28T23:45:20.270Z,21.34
2018-07-28T23:47:48.961Z,21.27
2018-07-28T23:50:17.677Z,21.24
2018-07-28T23:52:46.414Z,21.10
2018-07-28T23:55:15.011Z,20.89
2018-07-28T23:57:43.721Z,20.66
